Tropical Cyclones
[Index]
Main Index Home Page Stock Weather Photos Extreme Storms Discussion Storm News and Storm Chasing Reports Tropical Cyclones / Hurricanes / Typhoons Weather Data and Links Wild Fires / Bushfires Weather Observation Techniques Weather Picture Catalogue Tornado Pictures and Reports Stock Video Footage and DVDs for sale
Season 1991-1992 Tropical Cyclone WASA Track Map
Season 1991-1992 Summaries: [BoM-AU] [JTWC-AU] [JTWC-SIO] [JTWC-SPAC] [JTWC-SH]
<<- Previous TC | JTWC 1991-1992 Season | Next TC ->>

click for intensity scale information  Lat/long Grid: Show Hide

 Date Labels: Show Hide

Joint Typhoon Warning Centre Cyclone Data

Name: WASA

05 Dec 1991 00:00 UTC to 13 Dec 1991 06:00 UTC

    date/time    lat    long     hPa   cat  kts
1991-12-05 00   10.0   156.8W                 25          
1991-12-05 06   10.4   157.0W                 30          
1991-12-05 12   10.8   157.1W                 30          
1991-12-05 18   11.2   157.4W                 35          
1991-12-06 00   11.6   157.7W           1     40          
1991-12-06 06   12.1   158.1W           1     45          
1991-12-06 12   12.5   158.4W           2     55          
1991-12-06 18   13.0   158.6W           2     65          
1991-12-07 00   13.4   158.8W           3     75          
1991-12-07 06   13.7   159.1W           3     90          
1991-12-07 12   13.5   159.3W           3     95          
1991-12-07 18   13.3   159.4W           4    100          
1991-12-08 00   13.1   159.1W           4    105          
1991-12-08 06   13.2   158.8W           4    105          
1991-12-08 12   13.3   158.6W           4    105          
1991-12-08 18   13.5   158.3W           4    100          
1991-12-09 00   13.8   157.7W           4    100          
1991-12-09 06   14.1   157.1W           4    100          
1991-12-09 12   14.4   156.3W           3     95          
1991-12-09 18   14.7   155.5W           3     90          
1991-12-10 00   15.0   154.9W           3     90          
1991-12-10 06   15.4   154.4W           3     90          
1991-12-10 12   15.8   153.9W           3     90          
1991-12-10 18   16.6   153.4W           3     90          
1991-12-11 00   17.5   152.9W           3     85          
1991-12-11 06   18.3   152.4W           3     85          
1991-12-11 12   19.3   152.1W           3     80          
1991-12-11 18   20.4   151.8W           3     75          
1991-12-12 00   21.7   151.2W           3     75          
1991-12-12 06   22.8   150.2W           2     70          
1991-12-12 12   23.7   148.8W           2     60          
1991-12-12 18   24.1   146.8W           1     50          
1991-12-13 00   24.2   144.5W           1     40          
1991-12-13 06   24.0   142.0W                 30          
Winds are 1-min average.

Tropical cyclone tracks developed by Michael Bath using data from the Joint Typhoon Warning Centre Best Tracks and Google Maps.


[Australian Severe Weather index] [Copyright Notice] [Email Contacts] [Search This Site] [Privacy Policy]
Document: tropical_cyclone_wasa.htm Updated: 18 September 2016